Time;durP1;ratioP1;P1;durP2;ratioP2;P2;SDS_P1;SDS_P2;PMS_P1;PMS_P2;Temp;Humidity;BMP_temperature;BMP_pressure;BME280_temperature;BME280_humidity;BME280_pressure;Samples;Min_cycle;Max_cycle;Signal;HPM_P1;HPM_P2
2021/08/22 00:01:25;;;;;;;26.67;18.35;;;;;;;;;;4985049;28;20570;-76
2021/08/22 00:03:52;;;;;;;29.50;17.77;;;;;;;;;;5001114;28;20400;-75
2021/08/22 00:06:19;;;;;;;33.20;17.85;;;;;;;;;;5004035;28;20050;-75
2021/08/22 00:08:47;;;;;;;28.90;17.83;;;;;;;;;;5002768;28;20037;-75
2021/08/22 00:11:14;;;;;;;31.70;20.23;;;;;;;;;;5003641;28;20117;-77
2021/08/22 00:13:41;;;;;;;27.80;19.10;;;;;;;;;;5004150;28;20073;-75
2021/08/22 00:16:08;;;;;;;28.48;18.38;;;;;;;;;;5004741;28;20479;-76
2021/08/22 00:18:35;;;;;;;31.15;19.05;;;;;;;;;;5003804;28;20523;-76
2021/08/22 00:21:02;;;;;;;31.50;19.85;;;;;;;;;;5004463;28;20137;-76
2021/08/22 00:23:33;;;;;;;32.70;20.95;;;;;;;;;;4984641;28;20089;-76
2021/08/22 00:26:00;;;;;;;35.22;22.95;;;;;;;;;;4984443;28;20042;-76
2021/08/22 00:28:27;;;;;;;34.10;22.25;;;;;;;;;;4986389;28;20700;-76
2021/08/22 00:30:54;;;;;;;35.13;23.98;;;;;;;;;;5005342;28;20046;-76
2021/08/22 00:33:21;;;;;;;42.40;28.38;;;;;;;;;;5005791;28;20148;-75
2021/08/22 00:35:48;;;;;;;43.15;30.98;;;;;;;;;;5007798;28;20125;-75
2021/08/22 00:38:15;;;;;;;50.55;36.42;;;;;;;;;;5007665;28;20570;-75
2021/08/22 00:40:43;;;;;;;55.78;40.47;;;;;;;;;;5005602;28;20119;-76
2021/08/22 00:43:11;;;;;;;65.90;45.47;;;;;;;;;;5006468;28;20504;-76
2021/08/22 00:45:39;;;;;;;63.78;44.22;;;;;;;;;;5007452;28;20041;-75
2021/08/22 00:48:06;;;;;;;66.90;45.22;;;;;;;;;;5007046;28;20093;-76
2021/08/22 00:50:34;;;;;;;54.95;40.38;;;;;;;;;;5006262;28;20586;-75
2021/08/22 00:53:05;;;;;;;55.03;39.35;;;;;;;;;;5007364;28;20053;-76
2021/08/22 00:55:33;;;;;;;52.28;37.83;;;;;;;;;;5007365;28;20050;-75
2021/08/22 00:58:00;;;;;;;60.10;36.03;;;;;;;;;;5007182;28;20037;-75
2021/08/22 01:00:27;;;;;;;53.15;34.08;;;;;;;;;;4989463;28;20045;-76
2021/08/22 01:03:18;;;;;;;49.83;32.22;;;;;;;;;;5002977;28;20037;-75
2021/08/22 01:06:28;;;;;;;45.08;29.13;;;;;;;;;;5007125;28;20049;-75
2021/08/22 01:09:06;;;;;;;47.88;29.75;;;;;;;;;;5000557;28;20096;-76
2021/08/22 01:11:37;;;;;;;43.97;28.45;;;;;;;;;;4986017;28;20043;-76
2021/08/22 01:14:16;;;;;;;40.72;28.85;;;;;;;;;;4985419;28;20074;-76
2021/08/22 01:16:49;;;;;;;41.83;28.10;;;;;;;;;;4985255;28;20068;-76
2021/08/22 01:19:34;;;;;;;41.65;27.48;;;;;;;;;;5003846;28;20045;-75
2021/08/22 01:22:06;;;;;;;42.10;26.58;;;;;;;;;;5005424;28;20069;-76
2021/08/22 01:24:37;;;;;;;37.13;26.60;;;;;;;;;;4987282;28;20038;-76
2021/08/22 01:27:06;;;;;;;39.92;26.83;;;;;;;;;;4985498;28;20475;-76
2021/08/22 01:30:05;;;;;;;51.70;32.45;;;;;;;;;;4986739;28;20069;-76
2021/08/22 01:32:38;;;;;;;45.53;30.70;;;;;;;;;;4988022;28;20058;-76
2021/08/22 01:35:08;;;;;;;41.88;28.98;;;;;;;;;;4986890;28;20053;-75
2021/08/22 01:37:37;;;;;;;40.92;27.90;;;;;;;;;;4985456;28;20038;-77
2021/08/22 01:40:07;;;;;;;49.03;28.60;;;;;;;;;;4984717;28;20054;-76
2021/08/22 01:42:35;;;;;;;41.05;29.05;;;;;;;;;;4987003;28;20043;-76
2021/08/22 01:45:07;;;;;;;40.30;28.67;;;;;;;;;;4985151;28;20045;-76
2021/08/22 01:47:40;;;;;;;45.28;28.42;;;;;;;;;;5018640;28;20117;-75
2021/08/22 01:50:08;;;;;;;42.47;27.58;;;;;;;;;;5005963;28;20046;-75
2021/08/22 01:52:37;;;;;;;40.35;27.75;;;;;;;;;;5004484;28;20080;-75
2021/08/22 01:55:06;;;;;;;46.08;29.38;;;;;;;;;;5004631;28;20184;-75
2021/08/22 01:57:38;;;;;;;43.63;29.17;;;;;;;;;;5004582;28;20503;-75
2021/08/22 02:00:06;;;;;;;45.25;29.35;;;;;;;;;;5004655;28;20038;-75
2021/08/22 02:02:33;;;;;;;43.28;30.58;;;;;;;;;;5004519;28;20049;-76
2021/08/22 02:05:03;;;;;;;44.47;29.73;;;;;;;;;;5004260;28;20045;-76
2021/08/22 02:07:32;;;;;;;43.47;28.23;;;;;;;;;;4986464;28;20516;-75
2021/08/22 02:10:09;;;;;;;44.20;27.65;;;;;;;;;;4986191;28;20092;-75
2021/08/22 02:12:39;;;;;;;41.28;27.90;;;;;;;;;;5003229;28;20581;-75
2021/08/22 02:15:10;;;;;;;45.78;30.33;;;;;;;;;;5005778;28;20052;-75
2021/08/22 02:17:52;;;;;;;43.60;28.17;;;;;;;;;;5005026;28;20583;-75
2021/08/22 02:20:20;;;;;;;44.80;26.70;;;;;;;;;;5004028;28;20064;-75
2021/08/22 02:22:48;;;;;;;43.88;26.75;;;;;;;;;;5005400;28;20464;-76
2021/08/22 02:25:15;;;;;;;39.72;25.63;;;;;;;;;;5005520;28;20052;-75
2021/08/22 02:27:43;;;;;;;40.72;25.08;;;;;;;;;;5005272;28;20467;-75
2021/08/22 02:30:11;;;;;;;47.10;27.00;;;;;;;;;;5003229;28;20448;-76
2021/08/22 02:32:40;;;;;;;43.33;27.65;;;;;;;;;;5006001;28;20068;-74
2021/08/22 02:35:08;;;;;;;52.20;28.42;;;;;;;;;;5003563;28;20046;-74
2021/08/22 02:37:35;;;;;;;48.53;28.05;;;;;;;;;;5005066;28;20041;-76
2021/08/22 02:40:03;;;;;;;43.75;27.67;;;;;;;;;;5005524;28;20038;-75
2021/08/22 02:42:29;;;;;;;48.60;27.85;;;;;;;;;;5006869;28;20090;-76
2021/08/22 02:44:57;;;;;;;53.65;31.40;;;;;;;;;;5009768;28;20464;-75
2021/08/22 02:47:24;;;;;;;55.33;30.88;;;;;;;;;;5004743;28;20042;-75
2021/08/22 02:49:51;;;;;;;46.15;28.30;;;;;;;;;;5004676;28;20042;-76
2021/08/22 02:52:18;;;;;;;51.97;30.30;;;;;;;;;;5004549;28;20042;-75
2021/08/22 02:54:45;;;;;;;50.10;30.92;;;;;;;;;;5005161;28;20385;-75
2021/08/22 02:57:12;;;;;;;49.10;28.27;;;;;;;;;;5003611;28;20041;-76
2021/08/22 02:59:39;;;;;;;45.45;27.98;;;;;;;;;;4985639;28;20049;-75
2021/08/22 03:02:06;;;;;;;51.63;29.77;;;;;;;;;;4984928;28;20046;-76
2021/08/22 03:04:33;;;;;;;46.22;29.02;;;;;;;;;;4983172;28;20489;-78
2021/08/22 03:07:02;;;;;;;50.05;29.20;;;;;;;;;;5000862;28;20045;-75
2021/08/22 03:09:29;;;;;;;49.70;29.85;;;;;;;;;;5015611;28;20054;-77
2021/08/22 03:11:56;;;;;;;48.70;30.77;;;;;;;;;;5002482;28;20412;-76
2021/08/22 03:14:24;;;;;;;48.75;29.48;;;;;;;;;;4998778;28;20037;-81
2021/08/22 03:16:51;;;;;;;48.38;29.92;;;;;;;;;;5014737;28;20046;-79
2021/08/22 03:19:18;;;;;;;53.58;29.67;;;;;;;;;;5002190;28;20053;-73
2021/08/22 03:21:46;;;;;;;46.70;28.90;;;;;;;;;;5001190;28;20072;-84
2021/08/22 03:24:13;;;;;;;49.80;31.13;;;;;;;;;;5002436;28;20042;-73
2021/08/22 03:26:41;;;;;;;52.17;34.40;;;;;;;;;;5002287;28;20153;-73
2021/08/22 03:29:08;;;;;;;53.78;35.60;;;;;;;;;;5003181;28;20137;-75
2021/08/22 03:31:35;;;;;;;47.55;35.95;;;;;;;;;;5004328;28;20466;-71
2021/08/22 03:34:03;;;;;;;51.85;37.72;;;;;;;;;;5004230;28;20487;-70
2021/08/22 03:36:30;;;;;;;48.90;34.70;;;;;;;;;;5003690;28;20053;-74
2021/08/22 03:38:57;;;;;;;55.33;34.33;;;;;;;;;;5003896;28;20049;-71
2021/08/22 03:41:24;;;;;;;55.13;34.70;;;;;;;;;;5001727;28;20044;-72
2021/08/22 03:43:51;;;;;;;64.60;38.90;;;;;;;;;;5003836;28;20050;-72
2021/08/22 03:46:18;;;;;;;68.00;40.25;;;;;;;;;;5003670;28;20042;-71
2021/08/22 03:48:45;;;;;;;80.40;43.05;;;;;;;;;;5003406;28;20172;-73
2021/08/22 03:51:12;;;;;;;78.18;42.17;;;;;;;;;;5003825;28;20030;-72
2021/08/22 03:53:39;;;;;;;68.45;40.17;;;;;;;;;;5001732;28;20496;-71
2021/08/22 03:56:06;;;;;;;67.85;39.05;;;;;;;;;;5003789;28;20065;-70
2021/08/22 03:58:33;;;;;;;61.20;36.53;;;;;;;;;;5003441;28;20048;-74
2021/08/22 04:01:00;;;;;;;61.45;35.22;;;;;;;;;;5001838;28;20515;-72
2021/08/22 04:03:30;;;;;;;65.88;33.58;;;;;;;;;;5005426;28;20156;-71
2021/08/22 04:05:57;;;;;;;56.50;34.85;;;;;;;;;;5025830;28;20045;-71
2021/08/22 04:08:25;;;;;;;59.70;32.80;;;;;;;;;;5025051;28;20045;-72
2021/08/22 04:10:52;;;;;;;52.38;30.05;;;;;;;;;;5009281;28;20435;-70
2021/08/22 04:13:20;;;;;;;57.20;32.53;;;;;;;;;;5026856;28;20519;-75
2021/08/22 04:15:49;;;;;;;56.13;36.85;;;;;;;;;;5026802;28;20033;-71
2021/08/22 04:18:17;;;;;;;53.30;32.30;;;;;;;;;;5027073;28;20053;-75
2021/08/22 04:20:44;;;;;;;49.92;31.67;;;;;;;;;;5009057;28;20068;-70
2021/08/22 04:23:12;;;;;;;47.45;28.77;;;;;;;;;;5025087;28;20168;-71
2021/08/22 04:25:43;;;;;;;50.08;28.92;;;;;;;;;;5027191;28;20038;-72
2021/08/22 04:28:11;;;;;;;55.53;29.33;;;;;;;;;;5025134;28;20515;-70
2021/08/22 04:30:38;;;;;;;45.10;27.13;;;;;;;;;;5026095;28;20048;-71
2021/08/22 04:33:06;;;;;;;46.10;26.48;;;;;;;;;;5025469;28;20463;-72
2021/08/22 04:35:33;;;;;;;40.72;26.60;;;;;;;;;;5026506;28;20113;-72
2021/08/22 04:38:00;;;;;;;51.90;28.38;;;;;;;;;;5008540;28;20049;-73
2021/08/22 04:40:28;;;;;;;44.80;28.85;;;;;;;;;;5026887;28;20740;-72
2021/08/22 04:42:56;;;;;;;47.15;27.25;;;;;;;;;;5026030;28;20040;-73
2021/08/22 04:45:24;;;;;;;44.15;28.50;;;;;;;;;;5024912;28;20050;-73
2021/08/22 04:47:51;;;;;;;49.38;30.20;;;;;;;;;;5024897;28;20050;-72
2021/08/22 04:50:18;;;;;;;46.92;29.63;;;;;;;;;;5026009;28;20098;-75
2021/08/22 04:52:45;;;;;;;46.50;30.45;;;;;;;;;;5025800;28;20119;-75
2021/08/22 04:55:12;;;;;;;44.38;30.15;;;;;;;;;;5024984;28;20037;-73
2021/08/22 04:57:44;;;;;;;47.25;30.05;;;;;;;;;;5024378;28;20068;-76
2021/08/22 05:00:12;;;;;;;45.13;27.27;;;;;;;;;;5026080;28;20038;-77
2021/08/22 05:02:39;;;;;;;39.25;25.00;;;;;;;;;;5025577;28;20491;-76
2021/08/22 05:05:07;;;;;;;32.83;23.60;;;;;;;;;;5026273;28;20492;-75
2021/08/22 05:07:34;;;;;;;38.72;22.05;;;;;;;;;;5024462;28;20041;-75
2021/08/22 05:10:01;;;;;;;33.03;22.67;;;;;;;;;;5023959;28;20136;-77
2021/08/22 05:12:28;;;;;;;30.90;22.05;;;;;;;;;;5026373;28;20033;-75
2021/08/22 05:14:55;;;;;;;33.90;18.95;;;;;;;;;;5023113;28;20048;-75
2021/08/22 05:17:23;;;;;;;29.05;18.63;;;;;;;;;;5025740;28;22503;-76
2021/08/22 05:19:50;;;;;;;29.70;19.05;;;;;;;;;;5024105;28;20092;-77
2021/08/22 05:22:20;;;;;;;28.08;18.00;;;;;;;;;;5025840;28;20431;-74
2021/08/22 05:24:47;;;;;;;31.02;18.77;;;;;;;;;;5007972;28;20051;-74
2021/08/22 05:27:14;;;;;;;29.73;19.10;;;;;;;;;;5025279;28;20048;-72
2021/08/22 05:29:41;;;;;;;30.25;19.73;;;;;;;;;;5023739;28;20061;-73
2021/08/22 05:32:08;;;;;;;28.73;19.50;;;;;;;;;;5024322;28;20056;-75
2021/08/22 05:34:36;;;;;;;31.83;19.13;;;;;;;;;;5025518;28;20053;-75
2021/08/22 05:37:03;;;;;;;31.63;19.95;;;;;;;;;;5025664;28;20476;-75
2021/08/22 05:39:30;;;;;;;45.47;19.95;;;;;;;;;;5025858;28;20418;-73
2021/08/22 05:41:57;;;;;;;29.80;18.52;;;;;;;;;;5025387;28;20558;-77
2021/08/22 05:44:24;;;;;;;29.52;18.45;;;;;;;;;;5025414;28;20120;-73
2021/08/22 05:46:52;;;;;;;34.65;19.40;;;;;;;;;;5025583;28;20076;-73
2021/08/22 05:49:19;;;;;;;41.20;19.98;;;;;;;;;;5023377;28;20586;-74
2021/08/22 05:51:46;;;;;;;49.13;21.48;;;;;;;;;;5025428;28;20132;-72
2021/08/22 05:54:13;;;;;;;42.35;20.00;;;;;;;;;;5025075;28;20041;-73
2021/08/22 05:56:40;;;;;;;35.67;20.75;;;;;;;;;;5023752;28;20052;-73
2021/08/22 05:59:07;;;;;;;68.53;26.02;;;;;;;;;;5023410;28;20034;-73
2021/08/22 06:01:35;;;;;;;82.10;24.85;;;;;;;;;;5023295;28;20442;-74
2021/08/22 06:04:02;;;;;;;43.22;23.70;;;;;;;;;;5023410;28;20045;-74
2021/08/22 06:06:29;;;;;;;44.97;23.35;;;;;;;;;;5023839;28;20037;-75
2021/08/22 06:08:56;;;;;;;34.95;23.42;;;;;;;;;;5023282;28;20429;-74
2021/08/22 06:11:23;;;;;;;53.95;23.50;;;;;;;;;;5023339;28;20037;-73
2021/08/22 06:13:50;;;;;;;34.65;23.17;;;;;;;;;;5024778;28;20038;-76
2021/08/22 06:16:17;;;;;;;31.80;22.20;;;;;;;;;;5025249;28;20462;-73
2021/08/22 06:18:44;;;;;;;39.40;21.90;;;;;;;;;;5022633;28;20041;-74
2021/08/22 06:21:11;;;;;;;38.92;21.50;;;;;;;;;;5024551;28;20498;-77
2021/08/22 06:23:38;;;;;;;34.55;21.05;;;;;;;;;;5025114;28;20503;-74
2021/08/22 06:26:05;;;;;;;27.17;19.90;;;;;;;;;;5024495;28;20049;-74
2021/08/22 06:28:33;;;;;;;26.73;20.48;;;;;;;;;;5022336;28;20045;-77
2021/08/22 06:31:00;;;;;;;28.42;20.45;;;;;;;;;;5022616;28;20450;-74
2021/08/22 06:33:28;;;;;;;23.30;18.60;;;;;;;;;;5022669;28;20459;-75
2021/08/22 06:36:02;;;;;;;24.60;18.95;;;;;;;;;;5024796;28;20042;-75
2021/08/22 06:38:29;;;;;;;23.00;18.27;;;;;;;;;;5045757;28;20040;-75
2021/08/22 06:40:56;;;;;;;24.75;18.35;;;;;;;;;;5024320;28;20038;-76
2021/08/22 06:43:23;;;;;;;24.67;17.42;;;;;;;;;;5022854;28;20531;-75
2021/08/22 06:45:51;;;;;;;28.42;19.08;;;;;;;;;;5024041;28;20066;-76
2021/08/22 06:48:18;;;;;;;26.55;20.23;;;;;;;;;;5024533;28;20553;-76
2021/08/22 06:50:45;;;;;;;21.88;18.05;;;;;;;;;;5023547;28;20060;-76
2021/08/22 06:53:12;;;;;;;25.67;18.67;;;;;;;;;;5006006;28;20116;-75
2021/08/22 06:55:41;;;;;;;24.50;18.90;;;;;;;;;;5022456;28;20037;-73
2021/08/22 06:58:08;;;;;;;25.38;19.27;;;;;;;;;;5023646;28;20448;-73
2021/08/22 07:00:35;;;;;;;25.60;19.60;;;;;;;;;;5023202;28;20037;-73
2021/08/22 07:03:02;;;;;;;25.35;19.35;;;;;;;;;;5021893;28;20096;-74
2021/08/22 07:05:29;;;;;;;26.48;19.52;;;;;;;;;;5023355;28;20041;-74
2021/08/22 07:07:56;;;;;;;24.20;18.73;;;;;;;;;;5024178;28;20041;-73
2021/08/22 07:10:23;;;;;;;25.27;18.63;;;;;;;;;;5023923;28;20067;-73
2021/08/22 07:12:50;;;;;;;23.92;18.60;;;;;;;;;;5024249;28;20530;-72
2021/08/22 07:15:17;;;;;;;27.63;19.33;;;;;;;;;;5023815;28;20034;-72
2021/08/22 07:17:44;;;;;;;23.02;19.25;;;;;;;;;;5023660;28;20200;-74
2021/08/22 07:20:12;;;;;;;25.45;18.55;;;;;;;;;;5023979;28;20046;-72
2021/08/22 07:22:39;;;;;;;25.20;19.10;;;;;;;;;;5022075;28;20116;-72
2021/08/22 07:25:07;;;;;;;24.98;18.63;;;;;;;;;;5021610;28;20052;-74
2021/08/22 07:27:34;;;;;;;24.70;18.30;;;;;;;;;;5024177;28;20046;-73
2021/08/22 07:30:01;;;;;;;23.92;17.85;;;;;;;;;;5021547;28;20042;-72
2021/08/22 07:32:29;;;;;;;22.48;18.05;;;;;;;;;;5055441;28;20503;-73
2021/08/22 07:34:57;;;;;;;25.45;19.05;;;;;;;;;;5024033;28;20124;-72
2021/08/22 07:37:24;;;;;;;22.60;17.45;;;;;;;;;;5023343;28;20041;-74
2021/08/22 07:39:51;;;;;;;22.90;18.08;;;;;;;;;;5023357;28;20104;-74
2021/08/22 07:42:18;;;;;;;23.52;18.23;;;;;;;;;;5023819;28;20037;-73
2021/08/22 07:44:45;;;;;;;22.63;16.33;;;;;;;;;;5023143;28;20130;-73
2021/08/22 07:47:12;;;;;;;24.13;16.65;;;;;;;;;;5023859;28;20087;-73
2021/08/22 07:49:39;;;;;;;20.38;16.63;;;;;;;;;;5023262;28;20565;-73
2021/08/22 07:52:06;;;;;;;22.13;16.80;;;;;;;;;;5021502;28;20057;-74
2021/08/22 07:54:33;;;;;;;22.80;16.40;;;;;;;;;;5022245;28;20050;-73
2021/08/22 07:57:00;;;;;;;23.55;17.42;;;;;;;;;;5021396;28;20053;-73
2021/08/22 07:59:27;;;;;;;23.75;16.80;;;;;;;;;;5024187;28;20107;-72
2021/08/22 08:01:56;;;;;;;22.13;16.92;;;;;;;;;;5022001;28;20049;-72
2021/08/22 08:04:24;;;;;;;20.65;16.33;;;;;;;;;;5023094;28;20494;-75
2021/08/22 08:06:51;;;;;;;24.70;18.00;;;;;;;;;;5021867;28;20129;-72
2021/08/22 08:09:18;;;;;;;26.25;19.23;;;;;;;;;;5023030;28;20042;-72
2021/08/22 08:11:45;;;;;;;24.90;18.40;;;;;;;;;;5023052;28;20049;-74
2021/08/22 08:14:12;;;;;;;25.00;18.95;;;;;;;;;;5021907;28;20049;-73
2021/08/22 08:16:39;;;;;;;26.48;19.75;;;;;;;;;;5005316;28;20041;-73
2021/08/22 08:19:06;;;;;;;30.55;21.25;;;;;;;;;;5021651;28;20042;-73
2021/08/22 08:21:33;;;;;;;27.35;19.05;;;;;;;;;;5023031;28;20503;-73
2021/08/22 08:24:00;;;;;;;29.80;19.92;;;;;;;;;;5022861;28;20056;-75
2021/08/22 08:26:27;;;;;;;25.92;18.10;;;;;;;;;;5023342;28;20046;-74
2021/08/22 08:28:57;;;;;;;24.20;17.25;;;;;;;;;;5020954;28;20072;-74
2021/08/22 08:31:24;;;;;;;32.42;20.90;;;;;;;;;;5022716;28;20049;-76
2021/08/22 08:33:51;;;;;;;30.52;19.77;;;;;;;;;;5023309;28;20061;-73
2021/08/22 08:36:18;;;;;;;30.25;19.98;;;;;;;;;;5022876;28;20064;-74
2021/08/22 08:38:45;;;;;;;27.10;19.63;;;;;;;;;;5021052;28;20049;-75
2021/08/22 08:41:15;;;;;;;29.38;20.15;;;;;;;;;;5023149;28;20045;-74
2021/08/22 08:43:44;;;;;;;30.83;20.33;;;;;;;;;;5021272;28;20106;-76
2021/08/22 08:46:17;;;;;;;30.73;20.38;;;;;;;;;;5020576;28;20045;-75
2021/08/22 08:48:56;;;;;;;33.70;20.48;;;;;;;;;;5023154;28;20129;-75
2021/08/22 08:51:26;;;;;;;29.27;20.13;;;;;;;;;;5025923;28;20549;-75
2021/08/22 08:54:06;;;;;;;27.25;18.15;;;;;;;;;;5024219;28;20107;-77
2021/08/22 08:56:34;;;;;;;28.05;19.70;;;;;;;;;;5026122;28;20068;-76
2021/08/22 08:59:01;;;;;;;27.40;20.05;;;;;;;;;;5024074;28;20049;-76
2021/08/22 09:01:28;;;;;;;25.52;18.52;;;;;;;;;;5008661;28;20037;-75
2021/08/22 09:04:09;;;;;;;32.20;20.42;;;;;;;;;;5026058;28;20117;-73
2021/08/22 09:07:13;;;;;;;25.58;18.80;;;;;;;;;;5026332;28;20041;-72
2021/08/22 09:10:07;;;;;;;27.50;19.65;;;;;;;;;;5026056;28;20052;-74
2021/08/22 09:12:53;;;;;;;29.17;17.75;;;;;;;;;;5023672;28;20046;-73
2021/08/22 09:15:57;;;;;;;26.55;17.90;;;;;;;;;;5024477;28;20045;-74
2021/08/22 09:18:57;;;;;;;26.95;18.00;;;;;;;;;;5025601;28;20041;-73
2021/08/22 09:22:01;;;;;;;25.95;18.42;;;;;;;;;;5025524;28;20111;-74
2021/08/22 09:25:10;;;;;;;27.65;18.30;;;;;;;;;;5024006;28;20050;-73
2021/08/22 09:27:52;;;;;;;31.70;19.05;;;;;;;;;;5015394;28;20080;-73
2021/08/22 09:30:57;;;;;;;34.42;20.08;;;;;;;;;;5025499;28;20507;-72
2021/08/22 09:34:01;;;;;;;35.15;22.50;;;;;;;;;;5024154;28;20484;-71
2021/08/22 09:36:32;;;;;;;32.55;21.75;;;;;;;;;;5025621;28;20091;-72
2021/08/22 09:39:30;;;;;;;36.65;24.42;;;;;;;;;;5024125;28;20042;-72
2021/08/22 09:42:18;;;;;;;36.55;25.83;;;;;;;;;;5023282;28;20507;-73
2021/08/22 09:45:03;;;;;;;36.65;24.77;;;;;;;;;;5024341;28;20057;-73
2021/08/22 09:48:17;;;;;;;38.70;26.33;;;;;;;;;;5023958;28;20495;-76
2021/08/22 09:51:21;;;;;;;34.70;21.77;;;;;;;;;;5002001;28;20073;-74
2021/08/22 09:54:25;;;;;;;29.55;18.60;;;;;;;;;;5024908;28;20044;-77
2021/08/22 09:57:28;;;;;;;28.50;20.13;;;;;;;;;;5023461;28;20053;-73
2021/08/22 10:00:29;;;;;;;62.78;39.28;;;;;;;;;;5023242;28;20121;-73
2021/08/22 10:03:07;;;;;;;121.13;76.43;;;;;;;;;;5024830;28;20542;-73
2021/08/22 10:05:43;;;;;;;71.63;45.53;;;;;;;;;;5024984;28;20095;-76
2021/08/22 10:08:12;;;;;;;51.05;33.65;;;;;;;;;;5023320;28;20678;-72
2021/08/22 10:10:52;;;;;;;29.67;20.70;;;;;;;;;;5023107;28;20037;-75
2021/08/22 10:13:19;;;;;;;27.42;18.40;;;;;;;;;;5024882;28;20041;-74
2021/08/22 10:15:47;;;;;;;25.20;17.15;;;;;;;;;;5023467;28;20052;-73
2021/08/22 10:18:24;;;;;;;36.65;23.92;;;;;;;;;;5025156;28;20069;-71
2021/08/22 10:20:53;;;;;;;22.30;16.13;;;;;;;;;;5024624;28;20091;-71
2021/08/22 10:23:38;;;;;;;28.17;18.95;;;;;;;;;;5024565;28;20041;-72
2021/08/22 10:26:06;;;;;;;24.05;16.75;;;;;;;;;;5022929;28;20045;-76
2021/08/22 10:29:02;;;;;;;31.20;17.55;;;;;;;;;;5024453;28;20045;-73
2021/08/22 10:31:51;;;;;;;23.10;16.83;;;;;;;;;;5002926;28;20041;-73
2021/08/22 10:34:22;;;;;;;25.38;15.55;;;;;;;;;;5021662;28;20037;-74
2021/08/22 10:36:51;;;;;;;20.73;15.95;;;;;;;;;;5022794;28;20508;-72
2021/08/22 10:39:25;;;;;;;21.00;14.70;;;;;;;;;;5006374;28;20038;-72
2021/08/22 10:41:52;;;;;;;22.38;14.88;;;;;;;;;;5024285;28;20046;-74
2021/08/22 10:44:34;;;;;;;21.15;14.02;;;;;;;;;;5024387;28;20044;-72
2021/08/22 10:47:03;;;;;;;23.30;16.70;;;;;;;;;;5022741;28;20045;-73
2021/08/22 10:49:55;;;;;;;19.65;14.88;;;;;;;;;;5024066;28;20037;-75
2021/08/22 10:52:34;;;;;;;22.98;14.57;;;;;;;;;;5021290;28;20053;-73
2021/08/22 10:55:13;;;;;;;21.45;15.45;;;;;;;;;;5024017;28;20056;-72
2021/08/22 10:57:43;;;;;;;24.38;16.38;;;;;;;;;;5024333;28;20480;-73
2021/08/22 11:00:29;;;;;;;18.23;14.75;;;;;;;;;;5023931;28;20034;-77
2021/08/22 11:03:01;;;;;;;23.55;15.20;;;;;;;;;;5022348;28;20061;-75
2021/08/22 11:05:33;;;;;;;23.35;15.55;;;;;;;;;;5023839;28;20451;-74
2021/08/22 11:08:20;;;;;;;20.05;14.93;;;;;;;;;;5023784;28;20423;-77
2021/08/22 11:10:59;;;;;;;25.88;15.77;;;;;;;;;;5022360;28;20488;-74
2021/08/22 11:13:31;;;;;;;20.30;15.35;;;;;;;;;;5021963;28;20092;-73
2021/08/22 11:16:06;;;;;;;20.13;15.18;;;;;;;;;;5021970;28;20407;-74
2021/08/22 11:18:37;;;;;;;20.90;14.15;;;;;;;;;;5023541;28;20113;-77
2021/08/22 11:21:05;;;;;;;21.23;13.77;;;;;;;;;;5022240;28;20044;-76
2021/08/22 11:23:32;;;;;;;20.15;14.77;;;;;;;;;;5023488;28;20449;-72
2021/08/22 11:26:03;;;;;;;21.08;16.80;;;;;;;;;;5022275;28;20041;-74
2021/08/22 11:28:30;;;;;;;22.48;17.10;;;;;;;;;;5003796;28;20069;-72
2021/08/22 11:30:57;;;;;;;21.80;16.85;;;;;;;;;;5021562;28;20053;-71
2021/08/22 11:33:32;;;;;;;29.25;22.33;;;;;;;;;;5012497;28;20106;-72
2021/08/22 11:36:04;;;;;;;28.25;18.27;;;;;;;;;;5027217;28;20049;-72
2021/08/22 11:38:31;;;;;;;34.70;25.70;;;;;;;;;;5003067;28;20034;-72
2021/08/22 11:41:03;;;;;;;34.75;26.52;;;;;;;;;;5021232;28;20526;-72
2021/08/22 11:43:33;;;;;;;34.42;23.00;;;;;;;;;;5023016;28;20103;-72
2021/08/22 11:46:00;;;;;;;30.98;20.02;;;;;;;;;;5019359;28;20037;-72
2021/08/22 11:48:28;;;;;;;28.98;20.42;;;;;;;;;;5023331;28;20053;-73
2021/08/22 11:51:02;;;;;;;40.55;31.10;;;;;;;;;;5032550;28;20380;-72
2021/08/22 11:53:31;;;;;;;31.85;22.60;;;;;;;;;;5026903;28;20036;-72
2021/08/22 11:55:59;;;;;;;37.13;28.25;;;;;;;;;;5029872;28;20076;-73
2021/08/22 11:58:32;;;;;;;33.03;23.63;;;;;;;;;;5023252;28;20068;-72
2021/08/22 12:01:12;;;;;;;24.35;19.65;;;;;;;;;;5022741;28;20499;-74
2021/08/22 12:03:39;;;;;;;22.25;17.25;;;;;;;;;;5011609;28;20495;-73
2021/08/22 12:06:09;;;;;;;24.38;17.73;;;;;;;;;;5022877;28;20048;-73
2021/08/22 12:08:36;;;;;;;25.95;18.13;;;;;;;;;;5016899;28;20041;-73
2021/08/22 12:11:08;;;;;;;25.65;19.33;;;;;;;;;;5002721;28;20052;-73
2021/08/22 12:13:40;;;;;;;25.88;18.33;;;;;;;;;;5020204;28;20147;-74
2021/08/22 12:16:31;;;;;;;21.30;16.67;;;;;;;;;;5018917;28;20069;-73
2021/08/22 12:19:17;;;;;;;18.60;13.85;;;;;;;;;;5032377;28;20146;-74
2021/08/22 12:33:39;;;;;;;16.92;12.65;;;;;;;;;;4816348;27;20426;-80
2021/08/22 12:36:19;;;;;;;16.58;11.45;;;;;;;;;;4982799;28;20141;-80
2021/08/22 12:38:58;;;;;;;16.33;11.98;;;;;;;;;;4960605;28;20115;-80
2021/08/22 12:41:37;;;;;;;19.30;11.73;;;;;;;;;;4942518;28;20580;-78
2021/08/22 12:44:07;;;;;;;19.85;11.48;;;;;;;;;;4951274;28;20104;-76
2021/08/22 12:46:36;;;;;;;20.38;10.48;;;;;;;;;;4997931;28;20068;-77
2021/08/22 12:49:05;;;;;;;15.57;10.40;;;;;;;;;;4994334;28;20103;-78
2021/08/22 12:51:33;;;;;;;18.27;10.27;;;;;;;;;;5018196;28;20091;-78
2021/08/22 12:54:00;;;;;;;16.63;10.60;;;;;;;;;;4987863;28;20041;-79
2021/08/22 12:56:27;;;;;;;14.43;9.77;;;;;;;;;;5017095;28;20041;-79
2021/08/22 12:58:55;;;;;;;21.73;11.23;;;;;;;;;;5034826;28;20496;-78
2021/08/22 13:01:26;;;;;;;16.85;10.65;;;;;;;;;;5018936;28;20050;-79
2021/08/22 13:03:55;;;;;;;13.98;10.43;;;;;;;;;;5017357;28;20508;-86
2021/08/22 13:06:23;;;;;;;12.15;9.57;;;;;;;;;;5013813;28;21552;-82
2021/08/22 13:08:50;;;;;;;;;;;;;;;;;;5033979;28;20523;-81
2021/08/22 13:11:19;;;;;;;16.25;11.55;;;;;;;;;;5015273;28;19928;-81
2021/08/22 13:13:47;;;;;;;17.92;11.40;;;;;;;;;;4989173;28;20050;-81
2021/08/22 13:16:14;;;;;;;;;;;;;;;;;;4986925;28;20120;-80
2021/08/22 13:18:43;;;;;;;17.13;11.57;;;;;;;;;;5013241;28;19925;-82
2021/08/22 13:21:11;;;;;;;13.50;9.95;;;;;;;;;;4956553;28;20043;-82
2021/08/22 13:23:40;;;;;;;18.00;10.40;;;;;;;;;;4993647;28;20184;-80
2021/08/22 13:26:10;;;;;;;12.75;9.93;;;;;;;;;;5035104;28;20130;-82
2021/08/22 13:28:38;;;;;;;15.07;11.20;;;;;;;;;;5021638;28;20067;-79
2021/08/22 13:31:05;;;;;;;;;;;;;;;;;;5018622;28;21944;-80
2021/08/22 13:33:32;;;;;;;15.32;10.25;;;;;;;;;;5006629;28;19921;-80
2021/08/22 13:36:00;;;;;;;15.82;10.25;;;;;;;;;;4999323;28;20204;-86
2021/08/22 13:38:27;;;;;;;;;;;;;;;;;;5014513;28;20092;-81
2021/08/22 13:40:54;;;;;;;20.33;11.23;;;;;;;;;;5012757;28;20040;-80
2021/08/22 13:43:22;;;;;;;16.63;11.05;;;;;;;;;;5009447;28;20038;-79
2021/08/22 13:45:53;;;;;;;14.90;10.63;;;;;;;;;;4984997;28;20095;-75
2021/08/22 13:48:20;;;;;;;19.25;11.65;;;;;;;;;;4985962;28;20552;-80
2021/08/22 13:50:48;;;;;;;16.85;11.02;;;;;;;;;;4987523;28;20515;-83
2021/08/22 13:53:15;;;;;;;13.48;10.18;;;;;;;;;;4983535;28;20046;-81
2021/08/22 13:55:42;;;;;;;14.25;10.10;;;;;;;;;;4985848;28;20085;-80
2021/08/22 13:58:09;;;;;;;13.60;10.20;;;;;;;;;;4986064;28;20062;-80
2021/08/22 14:00:37;;;;;;;14.82;10.60;;;;;;;;;;4971604;28;20412;-82
2021/08/22 14:03:06;;;;;;;13.25;9.98;;;;;;;;;;5005128;28;20500;-82
2021/08/22 14:05:35;;;;;;;15.95;11.23;;;;;;;;;;4984715;28;20035;-81
2021/08/22 14:08:03;;;;;;;14.73;10.98;;;;;;;;;;5022121;28;20445;-82
2021/08/22 14:10:31;;;;;;;18.40;10.90;;;;;;;;;;4989560;28;20046;-83
2021/08/22 14:12:58;;;;;;;;;;;;;;;;;;5005934;28;20048;-83
2021/08/22 14:15:25;;;;;;;22.02;14.27;;;;;;;;;;5010301;28;19959;-83
2021/08/22 14:17:55;;;;;;;18.90;12.50;;;;;;;;;;5011380;28;20038;-80
2021/08/22 14:20:23;;;;;;;18.23;13.93;;;;;;;;;;5005402;28;20068;-81
2021/08/22 14:22:52;;;;;;;21.15;13.02;;;;;;;;;;4996064;28;20108;-81
2021/08/22 14:25:20;;;;;;;15.30;10.63;;;;;;;;;;5010981;28;20042;-82
2021/08/22 14:27:49;;;;;;;15.88;11.07;;;;;;;;;;4983101;28;20076;-82
2021/08/22 14:30:16;;;;;;;16.33;12.25;;;;;;;;;;5001698;28;20099;-82
2021/08/22 14:32:44;;;;;;;15.43;11.77;;;;;;;;;;4984191;28;20057;-81
2021/08/22 14:35:12;;;;;;;19.33;11.10;;;;;;;;;;5000678;28;20417;-82
2021/08/22 14:37:40;;;;;;;16.92;10.55;;;;;;;;;;4985791;28;20133;-81
2021/08/22 14:40:07;;;;;;;;;;;;;;;;;;4986418;28;20096;-82
2021/08/22 14:42:35;;;;;;;13.70;10.73;;;;;;;;;;4985506;28;19968;-82
2021/08/22 14:45:05;;;;;;;16.10;12.48;;;;;;;;;;4985370;28;20045;-82
2021/08/22 14:47:33;;;;;;;19.77;12.00;;;;;;;;;;4983103;28;20535;-80
2021/08/22 14:50:00;;;;;;;;;;;;;;;;;;4977644;28;20042;-81
2021/08/22 14:52:27;;;;;;;15.52;11.20;;;;;;;;;;5017481;28;19957;-81